Time;durP1;ratioP1;P1;durP2;ratioP2;P2;SDS_P1;SDS_P2;PMS_P1;PMS_P2;Temp;Humidity;BMP_temperature;BMP_pressure;BME280_temperature;BME280_humidity;BME280_pressure;Samples;Min_cycle;Max_cycle;Signal;HPM_P1;HPM_P2
2023/04/17 00:00:37;;;;;;;67.78;48.30;;;9.10;99.90;;;;;;4992307;28;20054;-72
2023/04/17 00:03:02;;;;;;;67.90;46.42;;;9.20;99.90;;;;;;4999208;28;20046;-72
2023/04/17 00:05:30;;;;;;;64.60;47.25;;;9.10;99.90;;;;;;5001066;28;20089;-71
2023/04/17 00:07:56;;;;;;;60.45;46.63;;;9.10;99.90;;;;;;4993358;28;20500;-71
2023/04/17 00:10:22;;;;;;;66.70;46.63;;;9.10;99.90;;;;;;4980066;28;20512;-72
2023/04/17 00:12:48;;;;;;;65.93;47.35;;;9.20;99.90;;;;;;5001175;28;20088;-71
2023/04/17 00:15:14;;;;;;;67.35;48.05;;;9.10;99.90;;;;;;4996431;28;20057;-71
2023/04/17 00:17:39;;;;;;;66.30;47.17;;;9.10;99.90;;;;;;4989000;28;20800;-72
2023/04/17 00:20:09;;;;;;;71.05;49.75;;;9.00;99.90;;;;;;4989570;28;20508;-72
2023/04/17 00:22:36;;;;;;;68.32;46.55;;;9.10;99.90;;;;;;4998151;28;20145;-71
2023/04/17 00:25:02;;;;;;;66.57;45.17;;;9.00;99.90;;;;;;4998453;28;20045;-71
2023/04/17 00:27:27;;;;;;;64.70;45.97;;;9.00;99.90;;;;;;4979367;28;20161;-71
2023/04/17 00:29:53;;;;;;;66.45;46.65;;;9.10;99.90;;;;;;5006068;28;20146;-71
2023/04/17 00:32:19;;;;;;;68.75;47.97;;;9.10;99.90;;;;;;4984723;28;20049;-71
2023/04/17 00:34:44;;;;;;;69.82;46.40;;;9.10;99.90;;;;;;5004838;28;20048;-71
2023/04/17 00:37:10;;;;;;;64.82;46.85;;;9.00;99.90;;;;;;5001866;28;20472;-71
2023/04/17 00:39:36;;;;;;;67.32;48.95;;;9.00;99.90;;;;;;5000339;28;20041;-72
2023/04/17 00:42:02;;;;;;;64.90;45.83;;;9.00;99.90;;;;;;5000708;28;20129;-71
2023/04/17 00:44:28;;;;;;;67.47;46.55;;;9.00;99.90;;;;;;5003459;28;20045;-72
2023/04/17 00:46:54;;;;;;;74.03;49.10;;;9.00;99.90;;;;;;4995188;28;20600;-72
2023/04/17 00:49:21;;;;;;;67.22;45.83;;;9.10;99.90;;;;;;4995243;28;20046;-72
2023/04/17 00:51:48;;;;;;;67.40;47.00;;;9.00;99.90;;;;;;4991557;28;20497;-71
2023/04/17 00:54:14;;;;;;;66.47;47.80;;;9.00;99.90;;;;;;4985541;28;20062;-71
2023/04/17 00:56:42;;;;;;;66.68;47.88;;;9.00;99.90;;;;;;4998722;28;20057;-71
2023/04/17 00:59:11;;;;;;;70.90;47.03;;;9.00;99.90;;;;;;4993955;28;20046;-72
2023/04/17 01:01:36;;;;;;;68.55;49.97;;;9.00;99.90;;;;;;4991927;28;20082;-70
2023/04/17 01:04:04;;;;;;;69.18;46.92;;;9.00;99.90;;;;;;4997158;28;20065;-72
2023/04/17 01:06:30;;;;;;;69.22;48.65;;;9.00;99.90;;;;;;4995251;28;20587;-71
2023/04/17 01:08:56;;;;;;;74.47;47.22;;;9.00;99.90;;;;;;4975839;28;20081;-71
2023/04/17 01:11:22;;;;;;;71.00;48.63;;;9.10;99.90;;;;;;4992587;28;20121;-71
2023/04/17 01:13:51;;;;;;;68.95;46.53;;;9.10;99.90;;;;;;5001566;28;20121;-71
2023/04/17 01:16:17;;;;;;;73.18;48.97;;;9.10;99.90;;;;;;4985714;28;20045;-71
2023/04/17 01:18:43;;;;;;;70.30;47.97;;;9.10;99.90;;;;;;4980254;28;20953;-71
2023/04/17 01:21:09;;;;;;;71.32;48.28;;;9.00;99.90;;;;;;4988741;28;20045;-71
2023/04/17 01:23:44;;;;;;;75.38;48.75;;;9.00;99.90;;;;;;4983027;28;20382;-71
2023/04/17 01:26:17;;;;;;;77.00;51.63;;;9.00;99.90;;;;;;4998859;28;20073;-71
2023/04/17 01:28:48;;;;;;;72.32;46.67;;;9.00;99.90;;;;;;4994213;28;20436;-71
2023/04/17 01:31:15;;;;;;;75.32;49.28;;;9.00;99.90;;;;;;4993488;28;20135;-71
2023/04/17 01:33:40;;;;;;;76.50;51.08;;;8.90;99.90;;;;;;4995128;28;20048;-71
2023/04/17 01:36:06;;;;;;;77.07;51.97;;;9.00;99.90;;;;;;4997483;28;20042;-71
2023/04/17 01:38:32;;;;;;;76.47;51.10;;;9.00;99.90;;;;;;4980610;28;20072;-71
2023/04/17 01:40:57;;;;;;;76.43;49.60;;;9.00;99.90;;;;;;4993375;28;20625;-72
2023/04/17 01:43:23;;;;;;;77.18;50.42;;;9.00;99.90;;;;;;4997907;28;20564;-71
2023/04/17 01:45:49;;;;;;;77.60;48.72;;;9.00;99.90;;;;;;4984668;28;20129;-71
2023/04/17 01:48:14;;;;;;;78.90;51.95;;;9.00;99.90;;;;;;4978538;28;20042;-71
2023/04/17 01:50:40;;;;;;;79.75;51.17;;;9.00;99.90;;;;;;4997079;28;20054;-72
2023/04/17 01:53:05;;;;;;;77.22;52.35;;;9.00;99.90;;;;;;4997519;28;20057;-72
2023/04/17 01:55:31;;;;;;;75.38;52.67;;;9.00;99.90;;;;;;4993830;28;20058;-72
2023/04/17 01:57:57;;;;;;;78.15;50.63;;;8.90;99.90;;;;;;4995713;28;20492;-72
2023/04/17 02:00:22;;;;;;;83.72;54.08;;;8.90;99.90;;;;;;4996423;28;20042;-72
2023/04/17 02:02:48;;;;;;;81.55;53.25;;;8.90;99.90;;;;;;4991294;28;20397;-71
2023/04/17 02:05:14;;;;;;;82.53;50.78;;;8.90;99.90;;;;;;4996334;28;20821;-69
2023/04/17 02:07:40;;;;;;;77.90;53.50;;;8.90;99.90;;;;;;4988547;28;20152;-71
2023/04/17 02:10:06;;;;;;;76.68;51.95;;;8.90;99.90;;;;;;4998500;28;20490;-71
2023/04/17 02:12:31;;;;;;;80.78;52.95;;;8.90;99.90;;;;;;4962110;28;20531;-71
2023/04/17 02:14:59;;;;;;;83.28;51.78;;;8.90;99.90;;;;;;4982577;28;20066;-71
2023/04/17 02:17:26;;;;;;;80.50;54.63;;;8.90;99.90;;;;;;4992224;28;20046;-71
2023/04/17 02:19:51;;;;;;;81.70;51.90;;;8.90;99.90;;;;;;4999428;28;20555;-71
2023/04/17 02:22:17;;;;;;;76.82;50.60;;;8.80;99.90;;;;;;4978993;28;20129;-71
2023/04/17 02:24:43;;;;;;;81.20;53.53;;;8.90;99.90;;;;;;4983473;28;20405;-71
2023/04/17 02:27:08;;;;;;;78.70;52.20;;;8.90;99.90;;;;;;4995616;28;20042;-71
2023/04/17 02:29:34;;;;;;;86.25;50.58;;;8.90;99.90;;;;;;5010000;28;20041;-72
2023/04/17 02:32:00;;;;;;;79.22;51.05;;;8.80;99.90;;;;;;4995323;28;20050;-71
2023/04/17 02:34:26;;;;;;;85.20;54.10;;;8.80;99.90;;;;;;4987814;28;21160;-71
2023/04/17 02:36:51;;;;;;;77.85;51.80;;;8.80;99.90;;;;;;5000619;28;20057;-71
2023/04/17 02:39:17;;;;;;;77.45;50.30;;;8.80;99.90;;;;;;5003049;28;20476;-71
2023/04/17 02:41:42;;;;;;;78.47;52.60;;;8.80;99.90;;;;;;5004295;28;20132;-71
2023/04/17 02:44:08;;;;;;;80.93;50.20;;;8.80;99.90;;;;;;5001007;28;20493;-71
2023/04/17 02:46:34;;;;;;;78.30;51.20;;;8.80;99.90;;;;;;4999835;28;20528;-71
2023/04/17 02:48:59;;;;;;;78.57;50.45;;;8.80;99.90;;;;;;5001267;28;20046;-72
2023/04/17 02:51:25;;;;;;;79.10;50.05;;;8.80;99.90;;;;;;4978863;28;20086;-72
2023/04/17 02:53:51;;;;;;;77.50;49.10;;;8.80;99.90;;;;;;4982578;28;20058;-71
2023/04/17 02:56:16;;;;;;;81.43;50.20;;;8.80;99.90;;;;;;5001498;28;20083;-71
2023/04/17 02:58:45;;;;;;;78.97;54.00;;;8.80;99.90;;;;;;4995923;28;20057;-71
2023/04/17 03:01:11;;;;;;;76.45;50.33;;;8.80;99.90;;;;;;4996270;28;20627;-72
2023/04/17 03:03:40;;;;;;;70.80;49.00;;;8.80;99.90;;;;;;4992517;28;20041;-71
2023/04/17 03:06:06;;;;;;;76.70;52.15;;;8.90;99.90;;;;;;4989146;28;20061;-71
2023/04/17 03:08:34;;;;;;;76.68;51.60;;;8.80;99.90;;;;;;4997712;28;20132;-71
2023/04/17 03:11:01;;;;;;;74.65;49.47;;;8.80;99.90;;;;;;4991474;28;20034;-71
2023/04/17 03:13:27;;;;;;;77.05;50.78;;;8.80;99.90;;;;;;4996283;28;20116;-71
2023/04/17 03:15:53;;;;;;;75.28;50.85;;;8.90;99.90;;;;;;4984685;28;20096;-71
2023/04/17 03:18:18;;;;;;;71.10;48.88;;;8.80;99.90;;;;;;5001849;28;20052;-71
2023/04/17 03:20:44;;;;;;;71.32;49.47;;;8.80;99.90;;;;;;4979774;28;20042;-71
2023/04/17 03:23:10;;;;;;;70.97;48.35;;;8.80;99.90;;;;;;4994908;28;20042;-71
2023/04/17 03:25:36;;;;;;;74.15;49.90;;;8.80;99.90;;;;;;4988649;28;20091;-71
2023/04/17 03:28:02;;;;;;;78.50;50.80;;;8.80;99.90;;;;;;4998373;28;20065;-71
2023/04/17 03:30:27;;;;;;;78.88;52.05;;;8.80;99.90;;;;;;4995996;28;20134;-71
2023/04/17 03:32:53;;;;;;;78.55;50.97;;;8.80;99.90;;;;;;4988257;28;20749;-71
2023/04/17 03:35:19;;;;;;;78.20;50.42;;;8.80;99.90;;;;;;4999477;28;20040;-71
2023/04/17 03:37:44;;;;;;;81.80;51.97;;;8.80;99.90;;;;;;5003817;28;20046;-71
2023/04/17 03:40:10;;;;;;;80.55;50.30;;;8.80;99.90;;;;;;4998714;28;20089;-71
2023/04/17 03:42:36;;;;;;;81.97;51.63;;;8.80;99.90;;;;;;4999373;28;20076;-71
2023/04/17 03:45:03;;;;;;;78.38;50.58;;;8.80;99.90;;;;;;5000734;28;20038;-71
2023/04/17 03:47:29;;;;;;;81.38;51.15;;;8.80;99.90;;;;;;4977917;28;20084;-71
2023/04/17 03:49:55;;;;;;;78.72;51.13;;;8.80;99.90;;;;;;4991808;28;20381;-71
2023/04/17 03:52:20;;;;;;;82.90;53.28;;;8.80;99.90;;;;;;4996318;28;20460;-71
2023/04/17 03:54:47;;;;;;;85.22;51.70;;;8.80;99.90;;;;;;4993763;28;20147;-71
2023/04/17 03:57:14;;;;;;;83.97;52.92;;;8.70;99.90;;;;;;5000211;28;20053;-71
2023/04/17 03:59:39;;;;;;;81.63;51.08;;;8.70;99.90;;;;;;4995933;28;20445;-71
2023/04/17 04:02:08;;;;;;;86.07;54.95;;;8.70;99.90;;;;;;4996246;28;20044;-71
2023/04/17 04:04:34;;;;;;;92.55;54.72;;;8.70;99.90;;;;;;4998415;28;20125;-71
2023/04/17 04:07:00;;;;;;;94.80;56.28;;;8.70;99.90;;;;;;4995994;28;20137;-71
2023/04/17 04:09:26;;;;;;;97.75;53.03;;;8.70;99.90;;;;;;4985053;28;20041;-72
2023/04/17 04:11:52;;;;;;;108.88;56.03;;;8.60;99.90;;;;;;4999267;28;20069;-71
2023/04/17 04:14:18;;;;;;;97.95;55.25;;;8.60;99.90;;;;;;4980566;28;20732;-71
2023/04/17 04:16:44;;;;;;;102.28;57.00;;;8.50;99.90;;;;;;4999512;28;20416;-71
2023/04/17 04:19:09;;;;;;;92.35;56.28;;;8.50;99.90;;;;;;4992356;28;20070;-71
2023/04/17 04:21:35;;;;;;;97.97;56.13;;;8.50;99.90;;;;;;4980326;28;20452;-72
2023/04/17 04:24:01;;;;;;;94.32;55.25;;;8.50;99.90;;;;;;4998278;28;20046;-72
2023/04/17 04:26:27;;;;;;;99.20;55.67;;;8.40;99.90;;;;;;5009799;28;20050;-70
2023/04/17 04:28:53;;;;;;;98.75;55.03;;;8.50;99.90;;;;;;4992770;28;20140;-71
2023/04/17 04:31:18;;;;;;;107.80;56.05;;;8.40;99.90;;;;;;4990945;28;20400;-72
2023/04/17 04:33:45;;;;;;;98.28;58.53;;;8.40;99.90;;;;;;4992223;28;20128;-72
2023/04/17 04:36:12;;;;;;;98.50;57.03;;;8.40;99.90;;;;;;5002288;28;20041;-72
2023/04/17 04:38:39;;;;;;;92.97;57.25;;;8.40;99.90;;;;;;4990261;28;20128;-72
2023/04/17 04:41:09;;;;;;;99.82;57.60;;;8.40;99.90;;;;;;5002472;28;20038;-72
2023/04/17 04:43:35;;;;;;;107.30;59.50;;;8.40;99.90;;;;;;4998031;28;20049;-73
2023/04/17 04:46:00;;;;;;;107.00;57.88;;;8.40;99.90;;;;;;4998747;28;20042;-72
2023/04/17 04:48:27;;;;;;;104.20;59.20;;;8.40;99.90;;;;;;4998109;28;20671;-72
2023/04/17 04:50:56;;;;;;;101.43;56.80;;;8.40;99.90;;;;;;4990910;28;20124;-72
2023/04/17 04:53:22;;;;;;;97.43;54.10;;;8.40;99.90;;;;;;4977346;28;20320;-71
2023/04/17 04:55:47;;;;;;;99.22;55.75;;;8.40;99.90;;;;;;5000757;28;20033;-71
2023/04/17 04:58:13;;;;;;;97.25;56.40;;;8.40;99.90;;;;;;4977970;28;20227;-71
2023/04/17 05:00:39;;;;;;;97.28;55.65;;;8.50;99.90;;;;;;4990080;28;20042;-72
2023/04/17 05:03:05;;;;;;;102.72;56.40;;;8.40;99.90;;;;;;4971529;28;20046;-72
2023/04/17 05:05:31;;;;;;;93.88;54.88;;;8.40;99.90;;;;;;4994929;28;20042;-71
2023/04/17 05:07:56;;;;;;;94.82;54.42;;;8.40;99.90;;;;;;4990923;28;20852;-72
2023/04/17 05:10:22;;;;;;;94.05;57.03;;;8.40;99.90;;;;;;4973139;28;20057;-72
2023/04/17 05:12:47;;;;;;;92.93;54.97;;;8.40;99.90;;;;;;4993878;28;20076;-72
2023/04/17 05:15:13;;;;;;;87.03;55.25;;;8.40;99.90;;;;;;4985151;28;20494;-71
2023/04/17 05:17:40;;;;;;;87.30;52.28;;;8.50;99.90;;;;;;5000662;28;20096;-71
2023/04/17 05:20:08;;;;;;;92.35;55.33;;;8.50;99.90;;;;;;5001679;28;20054;-73
2023/04/17 05:22:33;;;;;;;;;;;8.40;99.90;;;;;;4991383;28;20061;-72
2023/04/17 05:24:59;;;;;;;84.80;51.47;;;8.40;99.90;;;;;;4977397;28;20016;-72
2023/04/17 05:27:25;;;;;;;87.60;53.00;;;8.40;99.90;;;;;;4996080;28;20029;-70
2023/04/17 05:29:51;;;;;;;92.15;54.08;;;8.40;99.90;;;;;;5006028;28;20077;-71
2023/04/17 05:32:17;;;;;;;95.60;54.22;;;8.40;99.90;;;;;;5002642;28;20440;-71
2023/04/17 05:34:43;;;;;;;97.97;55.95;;;8.40;99.90;;;;;;4993991;28;20038;-71
2023/04/17 05:37:08;;;;;;;103.15;58.25;;;8.40;99.90;;;;;;5000773;28;20069;-71
2023/04/17 05:39:34;;;;;;;100.50;55.42;;;8.40;99.90;;;;;;4986376;28;20046;-71
2023/04/17 05:42:00;;;;;;;93.80;55.08;;;8.40;99.90;;;;;;4995211;28;20286;-70
2023/04/17 05:44:26;;;;;;;94.05;54.70;;;8.40;99.90;;;;;;4994528;28;20039;-71
2023/04/17 05:46:52;;;;;;;92.22;54.65;;;8.40;99.90;;;;;;4995369;28;20041;-71
2023/04/17 05:49:18;;;;;;;93.57;57.83;;;8.40;99.90;;;;;;5001394;28;20038;-71
2023/04/17 05:51:43;;;;;;;93.93;53.72;;;8.40;99.90;;;;;;5002822;28;20049;-71
2023/04/17 05:54:09;;;;;;;90.10;53.35;;;8.40;99.90;;;;;;5002393;28;20173;-71
2023/04/17 05:56:35;;;;;;;91.38;54.25;;;8.40;99.90;;;;;;4996516;28;20107;-71
2023/04/17 05:59:01;;;;;;;95.00;54.15;;;8.50;99.90;;;;;;4996182;28;20038;-72
2023/04/17 06:01:28;;;;;;;86.57;53.80;;;8.50;99.90;;;;;;4966215;28;20128;-71
2023/04/17 06:03:54;;;;;;;;;;;8.50;99.90;;;;;;5001621;28;20405;-71
2023/04/17 06:06:20;;;;;;;82.90;50.72;;;8.40;99.90;;;;;;4981511;28;19932;-72
2023/04/17 06:08:45;;;;;;;86.97;52.58;;;8.50;99.90;;;;;;5002930;28;20046;-71
2023/04/17 06:11:12;;;;;;;91.82;54.67;;;8.50;99.90;;;;;;4995654;28;20038;-71
2023/04/17 06:13:37;;;;;;;91.07;52.78;;;8.40;99.90;;;;;;5006417;28;20033;-71
2023/04/17 06:16:03;;;;;;;92.05;54.35;;;8.40;99.90;;;;;;5000401;28;20088;-71
2023/04/17 06:18:29;;;;;;;91.43;55.05;;;8.40;99.90;;;;;;4996673;28;20478;-71
2023/04/17 06:20:55;;;;;;;94.18;55.75;;;8.40;99.90;;;;;;4987975;28;20100;-71
2023/04/17 06:23:20;;;;;;;86.20;52.75;;;8.50;99.90;;;;;;4998651;28;20042;-71
2023/04/17 06:25:46;;;;;;;89.68;54.90;;;8.50;99.90;;;;;;5006452;28;20073;-71
2023/04/17 06:28:15;;;;;;;88.10;52.45;;;8.50;99.90;;;;;;5005265;28;20066;-71
2023/04/17 06:30:40;;;;;;;91.18;57.58;;;8.50;99.90;;;;;;4981730;28;20093;-71
2023/04/17 06:33:06;;;;;;;83.22;54.17;;;8.50;99.90;;;;;;4994193;28;20038;-71
2023/04/17 06:35:32;;;;;;;78.25;49.78;;;8.60;99.90;;;;;;4977353;28;20096;-71
2023/04/17 06:37:57;;;;;;;83.93;52.22;;;8.60;99.90;;;;;;4996541;28;20034;-71
2023/04/17 06:40:23;;;;;;;82.38;54.17;;;8.60;99.90;;;;;;4999975;28;21387;-71
2023/04/17 06:42:49;;;;;;;82.28;52.08;;;8.60;99.90;;;;;;4984689;28;20469;-70
2023/04/17 06:45:15;;;;;;;87.63;53.05;;;8.70;99.90;;;;;;4999359;28;20038;-71
2023/04/17 06:47:41;;;;;;;91.55;55.58;;;8.70;99.90;;;;;;5007964;28;20049;-70
2023/04/17 06:50:08;;;;;;;85.63;55.22;;;8.70;99.90;;;;;;4998845;28;20397;-71
2023/04/17 06:52:34;;;;;;;84.88;51.22;;;8.70;99.90;;;;;;5000099;28;20152;-71
2023/04/17 06:55:01;;;;;;;81.93;52.30;;;8.70;99.90;;;;;;4999684;28;20046;-71
2023/04/17 06:57:26;;;;;;;81.68;51.83;;;8.70;99.90;;;;;;4986149;28;20058;-71
2023/04/17 06:59:52;;;;;;;85.55;51.30;;;8.80;99.90;;;;;;4977968;28;20108;-71
2023/04/17 07:02:18;;;;;;;85.70;52.47;;;8.80;99.90;;;;;;4997361;28;20489;-71
2023/04/17 07:04:43;;;;;;;84.95;54.95;;;8.80;99.90;;;;;;4992640;28;20033;-71
2023/04/17 07:07:10;;;;;;;81.28;53.45;;;8.80;99.90;;;;;;5000728;28;20066;-72
2023/04/17 07:09:36;;;;;;;89.68;52.65;;;8.80;99.90;;;;;;5003730;28;20508;-78
2023/04/17 07:12:02;;;;;;;85.93;52.40;;;8.80;99.90;;;;;;4976227;28;20049;-70
2023/04/17 07:14:28;;;;;;;85.15;54.75;;;8.80;99.90;;;;;;5001209;28;20052;-71
2023/04/17 07:16:54;;;;;;;85.43;51.15;;;8.80;99.90;;;;;;5002666;28;20136;-70
2023/04/17 07:19:19;;;;;;;81.13;54.00;;;8.90;99.90;;;;;;5008495;28;20109;-71
2023/04/17 07:21:45;;;;;;;91.45;53.83;;;8.90;99.90;;;;;;5001437;28;20062;-71
2023/04/17 07:24:11;;;;;;;89.50;53.38;;;8.90;99.90;;;;;;5004955;28;20491;-71
2023/04/17 07:26:37;;;;;;;91.97;53.05;;;8.90;99.90;;;;;;4994833;28;20096;-71
2023/04/17 07:29:03;;;;;;;93.70;55.28;;;8.90;99.90;;;;;;4995759;28;20596;-69
2023/04/17 07:31:28;;;;;;;91.55;55.15;;;8.90;99.90;;;;;;5003219;28;20069;-71
2023/04/17 07:33:54;;;;;;;84.72;55.13;;;9.00;99.90;;;;;;5008251;28;20096;-71
2023/04/17 07:36:20;;;;;;;86.65;52.45;;;9.10;99.90;;;;;;5007307;28;20046;-71
2023/04/17 07:38:45;;;;;;;86.63;56.17;;;9.00;99.90;;;;;;4989117;28;20529;-72
2023/04/17 07:41:11;;;;;;;91.07;51.83;;;9.10;99.90;;;;;;5000046;28;20469;-70
2023/04/17 07:43:37;;;;;;;83.00;53.38;;;9.10;99.90;;;;;;5005734;28;20042;-70
2023/04/17 07:46:03;;;;;;;80.88;54.53;;;9.20;99.90;;;;;;5004861;28;20386;-70
2023/04/17 07:48:30;;;;;;;75.32;52.60;;;9.20;99.90;;;;;;5008359;28;20068;-70
2023/04/17 07:50:58;;;;;;;73.90;52.15;;;9.30;99.90;;;;;;5008521;28;20053;-70
2023/04/17 07:53:27;;;;;;;74.43;50.30;;;9.30;99.90;;;;;;5005726;28;20058;-71
2023/04/17 07:55:54;;;;;;;67.45;50.05;;;9.30;99.90;;;;;;5008236;28;20049;-71
2023/04/17 07:58:21;;;;;;;67.80;49.65;;;9.40;99.90;;;;;;5005768;28;20046;-70
2023/04/17 08:00:46;;;;;;;71.03;50.73;;;9.40;99.90;;;;;;4991998;28;20042;-70
2023/04/17 08:03:13;;;;;;;68.53;49.85;;;9.50;99.90;;;;;;5000786;28;20276;-70
2023/04/17 08:05:39;;;;;;;64.90;49.08;;;9.50;99.90;;;;;;5003744;28;20095;-70
2023/04/17 08:08:05;;;;;;;69.32;50.97;;;9.60;99.90;;;;;;4999180;28;20118;-71
2023/04/17 08:10:30;;;;;;;68.55;49.03;;;9.60;99.90;;;;;;4972114;28;20145;-72
2023/04/17 08:12:56;;;;;;;63.03;48.40;;;9.70;99.90;;;;;;4994899;28;20049;-72
2023/04/17 08:15:22;;;;;;;63.78;48.38;;;9.70;99.90;;;;;;4995922;28;20053;-71
2023/04/17 08:17:48;;;;;;;66.72;49.17;;;9.80;99.90;;;;;;4982836;28;20115;-71
2023/04/17 08:20:16;;;;;;;68.45;49.38;;;9.90;99.90;;;;;;4998137;28;20115;-71
2023/04/17 08:22:44;;;;;;;64.78;48.95;;;9.90;99.90;;;;;;5006277;28;20070;-70
2023/04/17 08:25:13;;;;;;;63.47;47.42;;;10.00;99.90;;;;;;5008529;28;20041;-72
2023/04/17 08:27:40;;;;;;;61.80;48.83;;;10.10;99.90;;;;;;5008346;28;20048;-72
2023/04/17 08:30:08;;;;;;;64.85;47.90;;;10.10;99.90;;;;;;5008049;28;20042;-73
2023/04/17 08:32:40;;;;;;;63.22;47.80;;;10.20;99.90;;;;;;4998088;28;20057;-70
2023/04/17 08:35:06;;;;;;;65.47;48.47;;;10.20;99.90;;;;;;5005716;28;20771;-70
2023/04/17 08:37:34;;;;;;;63.50;48.20;;;10.20;99.90;;;;;;5001874;28;20044;-71
2023/04/17 08:40:03;;;;;;;;;;;10.30;99.90;;;;;;5001676;28;20052;-70
2023/04/17 08:42:30;;;;;;;61.95;48.42;;;10.30;99.90;;;;;;5001325;28;19921;-70
2023/04/17 08:44:59;;;;;;;62.05;47.45;;;10.50;99.90;;;;;;5003434;28;20045;-71
2023/04/17 08:47:26;;;;;;;57.33;46.25;;;10.50;99.90;;;;;;4996382;28;20069;-70
2023/04/17 08:49:51;;;;;;;54.80;44.70;;;10.60;99.90;;;;;;4985613;28;20046;-69
2023/04/17 08:52:17;;;;;;;53.67;44.13;;;10.70;99.90;;;;;;4999725;28;20096;-69
2023/04/17 08:54:42;;;;;;;53.15;43.05;;;10.80;99.90;;;;;;4997407;28;20135;-70
2023/04/17 08:57:08;;;;;;;54.63;44.83;;;10.90;99.90;;;;;;5006614;28;20046;-70
2023/04/17 08:59:34;;;;;;;53.17;43.40;;;11.00;99.90;;;;;;5003909;28;20050;-69
2023/04/17 09:02:07;;;;;;;50.15;41.80;;;11.20;99.90;;;;;;4999586;28;20034;-69
2023/04/17 09:04:42;;;;;;;51.50;42.35;;;11.20;99.90;;;;;;4991303;28;20085;-70
2023/04/17 09:07:12;;;;;;;48.00;41.22;;;11.20;99.90;;;;;;5001910;28;20038;-68
2023/04/17 09:09:52;;;;;;;48.47;41.67;;;11.30;99.90;;;;;;5007173;28;20117;-68
2023/04/17 09:12:19;;;;;;;48.25;42.90;;;11.30;99.90;;;;;;4976403;28;20117;-69
2023/04/17 09:14:45;;;;;;;45.60;39.67;;;11.30;99.90;;;;;;4984955;28;20125;-69
2023/04/17 09:17:11;;;;;;;44.95;40.03;;;11.50;99.90;;;;;;4976874;28;20153;-70
2023/04/17 09:19:37;;;;;;;43.28;38.75;;;11.60;99.90;;;;;;4990100;28;20104;-68
2023/04/17 09:22:20;;;;;;;43.45;38.90;;;11.70;99.90;;;;;;4997524;28;20053;-69
2023/04/17 09:24:47;;;;;;;43.55;38.85;;;11.80;99.90;;;;;;5007083;28;20050;-68
2023/04/17 09:27:24;;;;;;;42.85;38.22;;;11.90;99.90;;;;;;5000580;28;22291;-69
2023/04/17 09:30:01;;;;;;;41.42;37.13;;;11.90;99.90;;;;;;5003372;28;20081;-68
2023/04/17 09:32:28;;;;;;;41.42;35.28;;;12.00;99.90;;;;;;5005733;28;20048;-68
2023/04/17 09:34:57;;;;;;;39.00;34.90;;;12.10;99.90;;;;;;5000926;28;20133;-68
2023/04/17 09:37:23;;;;;;;39.05;35.05;;;12.10;99.90;;;;;;5000831;28;20080;-68
2023/04/17 09:39:56;;;;;;;37.55;33.78;;;12.10;99.90;;;;;;5004724;28;20762;-68
2023/04/17 09:42:22;;;;;;;38.80;34.65;;;12.20;99.90;;;;;;5005725;28;20500;-69
2023/04/17 09:44:48;;;;;;;36.88;33.13;;;12.20;99.90;;;;;;5002563;28;20103;-69
2023/04/17 09:47:18;;;;;;;36.90;33.13;;;12.30;99.90;;;;;;4998207;28;20506;-68
2023/04/17 09:49:51;;;;;;;36.25;32.47;;;12.40;99.90;;;;;;4997095;28;20546;-67
2023/04/17 09:52:19;;;;;;;35.72;31.35;;;12.50;99.90;;;;;;4980539;28;20042;-68
2023/04/17 09:54:46;;;;;;;34.75;31.02;;;12.60;99.90;;;;;;4985011;28;20405;-69
2023/04/17 09:57:12;;;;;;;34.50;30.50;;;12.60;99.90;;;;;;4994906;28;20053;-68
2023/04/17 09:59:48;;;;;;;34.10;30.73;;;12.70;99.90;;;;;;5002863;28;20046;-68
2023/04/17 10:02:18;;;;;;;33.58;30.02;;;12.80;99.90;;;;;;5004094;28;20137;-70
2023/04/17 10:04:45;;;;;;;30.75;27.48;;;12.80;99.90;;;;;;5000862;28;20652;-69
2023/04/17 10:07:12;;;;;;;29.17;26.08;;;12.90;99.90;;;;;;5002878;28;20065;-67
2023/04/17 10:09:41;;;;;;;29.95;26.88;;;13.00;99.90;;;;;;4989278;28;20488;-70
2023/04/17 10:12:12;;;;;;;28.63;25.83;;;13.10;99.90;;;;;;4979145;28;20979;-72
2023/04/17 10:14:57;;;;;;;29.55;26.35;;;13.20;99.90;;;;;;4999008;28;20413;-72
2023/04/17 10:17:36;;;;;;;28.17;25.13;;;13.20;99.90;;;;;;4993195;28;20041;-72
2023/04/17 10:20:14;;;;;;;29.13;26.23;;;13.40;99.90;;;;;;5005625;28;20089;-71
2023/04/17 10:22:40;;;;;;;27.23;24.15;;;13.70;99.90;;;;;;5005875;28;20046;-70
2023/04/17 10:25:30;;;;;;;25.25;21.27;;;13.80;99.90;;;;;;5008555;28;20030;-73
2023/04/17 10:28:00;;;;;;;23.38;20.00;;;13.90;99.90;;;;;;4993675;28;20136;-72
2023/04/17 10:30:53;;;;;;;26.00;22.65;;;14.10;99.90;;;;;;4986926;28;20140;-70
2023/04/17 10:33:21;;;;;;;24.27;21.77;;;14.30;99.90;;;;;;4990575;28;20054;-67
2023/04/17 10:35:47;;;;;;;23.27;20.88;;;14.40;99.90;;;;;;5007371;28;20049;-69
2023/04/17 10:38:17;;;;;;;23.67;21.20;;;14.50;99.90;;;;;;4982531;28;20046;-70
2023/04/17 10:40:43;;;;;;;20.40;18.25;;;14.60;99.90;;;;;;5001605;28;20064;-71
2023/04/17 10:43:10;;;;;;;21.85;19.52;;;14.70;99.90;;;;;;5004051;28;20081;-71
2023/04/17 10:46:03;;;;;;;23.10;20.40;;;14.60;99.90;;;;;;5006447;28;20054;-71
2023/04/17 10:48:46;;;;;;;22.85;20.42;;;14.60;99.90;;;;;;5001156;28;20682;-71
2023/04/17 10:51:20;;;;;;;24.45;20.02;;;14.50;99.90;;;;;;4996760;28;20046;-71
2023/04/17 10:53:47;;;;;;;22.50;18.75;;;14.40;99.90;;;;;;4998822;28;20054;-71
2023/04/17 10:56:26;;;;;;;20.73;18.50;;;14.30;99.90;;;;;;4994427;28;20034;-71
2023/04/17 10:59:05;;;;;;;20.30;17.83;;;14.30;99.90;;;;;;4991582;28;20125;-70
2023/04/17 11:01:41;;;;;;;21.52;18.33;;;14.30;99.90;;;;;;4976841;28;20505;-70
2023/04/17 11:04:07;;;;;;;20.50;18.27;;;14.30;99.90;;;;;;5005637;28;20034;-70
2023/04/17 11:06:38;;;;;;;20.92;18.75;;;14.20;99.90;;;;;;4995960;28;20064;-71
2023/04/17 11:09:08;;;;;;;20.38;18.23;;;14.30;99.90;;;;;;5003402;28;20042;-71
2023/04/17 11:11:38;;;;;;;41.47;22.08;;;14.30;99.90;;;;;;4996325;28;20141;-70
2023/04/17 11:14:15;;;;;;;22.77;18.60;;;14.50;99.90;;;;;;5008426;28;20037;-70
2023/04/17 11:16:43;;;;;;;20.20;18.00;;;14.40;99.90;;;;;;5004043;28;20046;-70
2023/04/17 11:19:10;;;;;;;20.85;18.13;;;14.40;99.90;;;;;;5001682;28;20500;-70
2023/04/17 11:21:43;;;;;;;20.80;17.33;;;14.40;99.90;;;;;;4978727;28;20054;-70
2023/04/17 11:24:09;;;;;;;22.77;18.67;;;14.30;99.90;;;;;;5007969;28;20038;-72
2023/04/17 11:26:45;;;;;;;20.58;18.38;;;14.50;99.90;;;;;;4984674;28;20050;-71
2023/04/17 11:29:21;;;;;;;20.17;17.98;;;14.50;99.90;;;;;;4999244;28;20616;-69
2023/04/17 11:31:49;;;;;;;19.20;17.10;;;14.50;99.90;;;;;;5000710;28;20041;-70
2023/04/17 11:34:17;;;;;;;19.40;17.13;;;14.70;99.90;;;;;;5008942;28;20041;-70
2023/04/17 11:36:53;;;;;;;22.80;17.08;;;14.80;99.90;;;;;;5002249;28;20451;-69
2023/04/17 11:39:20;;;;;;;18.35;16.25;;;14.90;99.90;;;;;;5000071;28;20049;-69
2023/04/17 11:41:45;;;;;;;18.67;16.10;;;14.90;99.90;;;;;;5008752;28;20037;-70
2023/04/17 11:44:12;;;;;;;18.10;16.20;;;15.00;99.90;;;;;;5008029;28;20108;-71
2023/04/17 11:46:55;;;;;;;19.88;16.00;;;14.90;99.90;;;;;;5002535;28;20436;-67
2023/04/17 11:49:26;;;;;;;23.08;16.55;;;14.90;99.90;;;;;;5001718;28;20053;-68
2023/04/17 11:51:52;;;;;;;20.08;16.83;;;14.90;99.90;;;;;;5006729;28;20046;-66
2023/04/17 11:54:26;;;;;;;18.27;16.17;;;14.90;99.90;;;;;;5007253;28;20053;-67
2023/04/17 11:57:02;;;;;;;22.30;17.83;;;14.90;99.90;;;;;;5005137;28;20045;-67
2023/04/17 11:59:36;;;;;;;20.90;16.52;;;14.90;99.90;;;;;;5006780;28;20044;-68
2023/04/17 12:02:03;;;;;;;19.50;15.15;;;15.00;99.90;;;;;;5006670;28;20045;-67
2023/04/17 12:04:32;;;;;;;18.40;16.50;;;15.10;99.90;;;;;;4997310;28;20042;-68
2023/04/17 12:06:58;;;;;;;15.95;14.35;;;15.30;99.90;;;;;;4994522;28;20040;-67
2023/04/17 12:09:26;;;;;;;16.20;13.40;;;15.30;99.90;;;;;;5003738;28;20073;-67
2023/04/17 12:11:52;;;;;;;15.48;13.88;;;15.40;99.90;;;;;;4999436;28;20182;-68
2023/04/17 12:14:18;;;;;;;15.20;13.60;;;15.40;99.90;;;;;;4995286;28;20481;-67
2023/04/17 12:16:48;;;;;;;17.90;14.10;;;15.50;99.90;;;;;;4995809;28;20122;-67
2023/04/17 12:19:15;;;;;;;16.20;14.40;;;15.60;99.90;;;;;;5002834;28;20104;-68
2023/04/17 12:21:48;;;;;;;15.35;13.75;;;15.80;99.90;;;;;;5001786;28;20072;-66
2023/04/17 12:24:14;;;;;;;14.40;13.00;;;16.00;99.90;;;;;;5003312;28;20038;-67
2023/04/17 12:26:47;;;;;;;15.48;12.98;;;16.10;99.90;;;;;;5007141;28;20045;-67
2023/04/17 12:29:14;;;;;;;14.63;13.13;;;16.20;99.90;;;;;;5001080;28;20036;-67
2023/04/17 12:31:40;;;;;;;15.07;13.48;;;16.40;99.90;;;;;;5007981;28;20121;-67
2023/04/17 12:34:06;;;;;;;15.15;13.65;;;16.50;99.90;;;;;;5004016;28;20497;-68